Time;durP1;ratioP1;P1;durP2;ratioP2;P2;SDS_P1;SDS_P2;PMS_P1;PMS_P2;Temp;Humidity;BMP_temperature;BMP_pressure;BME280_temperature;BME280_humidity;BME280_pressure;Samples;Min_cycle;Max_cycle;Signal;HPM_P1;HPM_P2
2023/10/01 00:00:03;;;;;;;12.07;7.80;;;;;;;;;;5092731;28;20381;-80
2023/10/01 00:02:29;;;;;;;12.75;8.18;;;;;;;;;;5094650;28;20700;-80
2023/10/01 00:04:55;;;;;;;9.65;7.30;;;;;;;;;;5101481;28;20485;-79
2023/10/01 00:07:21;;;;;;;11.95;7.72;;;;;;;;;;5092913;28;20382;-80
2023/10/01 00:09:47;;;;;;;10.03;7.53;;;;;;;;;;5074277;28;20914;-79
2023/10/01 00:12:13;;;;;;;9.57;7.47;;;;;;;;;;5104004;28;20497;-79
2023/10/01 00:14:39;;;;;;;11.63;7.68;;;;;;;;;;5108986;28;20378;-80
2023/10/01 00:17:05;;;;;;;10.13;7.30;;;;;;;;;;5092447;28;20796;-79
2023/10/01 00:19:32;;;;;;;11.07;7.53;;;;;;;;;;5092344;28;20490;-79
2023/10/01 00:22:00;;;;;;;12.43;7.88;;;;;;;;;;5094458;28;20793;-79
2023/10/01 00:24:26;;;;;;;10.45;7.75;;;;;;;;;;5092110;28;20387;-79
2023/10/01 00:26:52;;;;;;;9.60;7.07;;;;;;;;;;5098282;28;20372;-79
2023/10/01 00:29:19;;;;;;;11.93;8.18;;;;;;;;;;5112598;28;20819;-80
2023/10/01 00:31:46;;;;;;;14.13;7.57;;;;;;;;;;5094070;28;20426;-79
2023/10/01 00:34:12;;;;;;;10.37;7.20;;;;;;;;;;5092305;28;20835;-79
2023/10/01 00:36:38;;;;;;;13.13;7.78;;;;;;;;;;5094626;28;20377;-79
2023/10/01 00:39:04;;;;;;;10.85;7.80;;;;;;;;;;5112102;28;20388;-79
2023/10/01 00:41:30;;;;;;;11.23;7.95;;;;;;;;;;5097335;28;20397;-80
2023/10/01 00:44:00;;;;;;;9.98;7.10;;;;;;;;;;5101486;28;20429;-79
2023/10/01 00:46:26;;;;;;;10.07;7.70;;;;;;;;;;5106456;28;20379;-80
2023/10/01 00:48:52;;;;;;;12.18;7.63;;;;;;;;;;5106518;28;20459;-79
2023/10/01 00:51:20;;;;;;;9.10;7.18;;;;;;;;;;5103552;28;20421;-80
2023/10/01 00:53:46;;;;;;;10.30;7.53;;;;;;;;;;5102331;28;20399;-79
2023/10/01 00:56:12;;;;;;;10.80;7.50;;;;;;;;;;5104937;28;20833;-79
2023/10/01 00:58:39;;;;;;;11.73;7.93;;;;;;;;;;5111947;28;20388;-79
2023/10/01 01:01:07;;;;;;;10.93;7.40;;;;;;;;;;5100983;28;20380;-79
2023/10/01 01:03:34;;;;;;;10.38;7.35;;;;;;;;;;5107346;28;20406;-79
2023/10/01 01:08:33;;;;;;;11.32;7.68;;;;;;;;;;5103750;28;20784;-80
2023/10/01 01:11:03;;;;;;;9.82;7.40;;;;;;;;;;5104951;28;20383;-81
2023/10/01 01:13:30;;;;;;;10.15;7.60;;;;;;;;;;5110791;28;20425;-80
2023/10/01 01:15:57;;;;;;;11.55;7.75;;;;;;;;;;5112905;28;20733;-79
2023/10/01 01:18:27;;;;;;;12.05;7.57;;;;;;;;;;5111946;28;20387;-79
2023/10/01 01:21:05;;;;;;;10.25;7.25;;;;;;;;;;5112433;28;20449;-80
2023/10/01 01:23:31;;;;;;;9.88;7.15;;;;;;;;;;5099198;28;20412;-79
2023/10/01 01:25:57;;;;;;;11.23;7.88;;;;;;;;;;5108296;28;20382;-79
2023/10/01 01:28:34;;;;;;;10.45;7.78;;;;;;;;;;5111147;28;20730;-79
2023/10/01 01:31:01;;;;;;;11.10;7.40;;;;;;;;;;5112138;28;20459;-80
2023/10/01 01:33:31;;;;;;;12.25;7.63;;;;;;;;;;5112015;28;20387;-79
2023/10/01 01:35:58;;;;;;;11.60;8.07;;;;;;;;;;5112120;28;20380;-79
2023/10/01 01:38:24;;;;;;;9.90;7.53;;;;;;;;;;5100957;28;20388;-80
2023/10/01 01:40:53;;;;;;;11.63;7.63;;;;;;;;;;5107708;28;20385;-79
2023/10/01 01:43:23;;;;;;;10.93;7.53;;;;;;;;;;5100078;28;20414;-79
2023/10/01 01:45:55;;;;;;;10.80;7.38;;;;;;;;;;5108095;28;20470;-79
2023/10/01 01:48:22;;;;;;;10.13;7.43;;;;;;;;;;5102082;28;20677;-79
2023/10/01 01:50:54;;;;;;;12.10;7.68;;;;;;;;;;5108133;28;20873;-79
2023/10/01 01:53:21;;;;;;;10.10;7.43;;;;;;;;;;5101169;28;20377;-79
2023/10/01 01:55:50;;;;;;;10.73;7.50;;;;;;;;;;5099078;28;20905;-79
2023/10/01 01:58:23;;;;;;;9.25;6.63;;;;;;;;;;5098710;28;20381;-79
2023/10/01 02:01:08;;;;;;;10.93;7.25;;;;;;;;;;5096745;28;20382;-79
2023/10/01 02:03:38;;;;;;;10.77;7.18;;;;;;;;;;5096002;28;20901;-79
2023/10/01 02:06:08;;;;;;;9.40;6.90;;;;;;;;;;5111597;28;20523;-79
2023/10/01 02:08:49;;;;;;;9.75;7.32;;;;;;;;;;5101665;28;20386;-79
2023/10/01 02:11:19;;;;;;;10.77;7.32;;;;;;;;;;5097986;28;20376;-78
2023/10/01 02:13:46;;;;;;;10.45;7.30;;;;;;;;;;5109807;28;20376;-80
2023/10/01 02:19:11;;;;;;;11.23;7.57;;;;;;;;;;5109515;28;20467;-79
2023/10/01 02:21:44;;;;;;;11.53;7.77;;;;;;;;;;5108395;28;20482;-80
2023/10/01 02:24:13;;;;;;;11.23;7.82;;;;;;;;;;5102594;28;20844;-79
2023/10/01 02:26:40;;;;;;;10.30;7.20;;;;;;;;;;5096747;28;20410;-79
2023/10/01 02:29:07;;;;;;;10.07;6.97;;;;;;;;;;5098411;28;20394;-79
2023/10/01 02:31:39;;;;;;;8.95;6.68;;;;;;;;;;5098447;28;20855;-79
2023/10/01 02:34:08;;;;;;;9.38;7.07;;;;;;;;;;5103418;28;20388;-79
2023/10/01 02:36:36;;;;;;;10.50;7.78;;;;;;;;;;5093816;28;20959;-79
2023/10/01 02:39:11;;;;;;;10.10;7.20;;;;;;;;;;5092630;28;20876;-79
2023/10/01 02:41:40;;;;;;;9.73;7.55;;;;;;;;;;5097322;28;20385;-79
2023/10/01 02:44:11;;;;;;;9.40;7.57;;;;;;;;;;5096046;28;20390;-79
2023/10/01 02:46:37;;;;;;;9.90;6.63;;;;;;;;;;5099123;28;20546;-79
2023/10/01 02:49:05;;;;;;;9.13;7.03;;;;;;;;;;5095706;28;20750;-79
2023/10/01 02:51:37;;;;;;;9.23;6.95;;;;;;;;;;5097005;28;20382;-79
2023/10/01 02:54:06;;;;;;;10.40;6.60;;;;;;;;;;5094254;28;20382;-80
2023/10/01 02:56:52;;;;;;;10.13;7.22;;;;;;;;;;5098460;28;20835;-80
2023/10/01 02:59:21;;;;;;;10.83;7.63;;;;;;;;;;5105308;28;20389;-79
2023/10/01 03:01:48;;;;;;;10.13;6.93;;;;;;;;;;5094978;28;20593;-80
2023/10/01 03:04:18;;;;;;;10.45;7.32;;;;;;;;;;5096467;28;20477;-79
2023/10/01 03:06:52;;;;;;;8.93;6.70;;;;;;;;;;5094216;28;20475;-79
2023/10/01 03:09:34;;;;;;;9.88;7.30;;;;;;;;;;5095232;28;20913;-80
2023/10/01 03:15:00;;;;;;;10.68;7.63;;;;;;;;;;5097119;28;20718;-79
2023/10/01 03:17:28;;;;;;;10.02;6.72;;;;;;;;;;5093686;28;20877;-79
2023/10/01 03:19:54;;;;;;;10.32;7.38;;;;;;;;;;5076202;28;20378;-79
2023/10/01 03:22:23;;;;;;;11.85;7.07;;;;;;;;;;5093051;28;20412;-79
2023/10/01 03:24:50;;;;;;;9.50;7.03;;;;;;;;;;5092640;28;20390;-79
2023/10/01 03:29:48;;;;;;;9.57;6.93;;;;;;;;;;5113658;28;20377;-79
2023/10/01 03:32:29;;;;;;;9.85;6.97;;;;;;;;;;5113831;28;20733;-80
2023/10/01 03:35:04;;;;;;;10.18;7.15;;;;;;;;;;5112928;28;21001;-79
2023/10/01 03:37:37;;;;;;;10.52;7.32;;;;;;;;;;5113189;28;20380;-80
2023/10/01 03:40:09;;;;;;;8.27;6.30;;;;;;;;;;5112684;28;20384;-79
2023/10/01 03:42:37;;;;;;;10.27;6.90;;;;;;;;;;5113356;28;20411;-79
2023/10/01 03:45:25;;;;;;;9.50;6.70;;;;;;;;;;5107508;28;20839;-79
2023/10/01 03:47:57;;;;;;;8.68;6.80;;;;;;;;;;5113279;28;20377;-79
2023/10/01 03:50:25;;;;;;;8.75;6.78;;;;;;;;;;5113077;28;20429;-79
2023/10/01 03:52:54;;;;;;;10.00;6.82;;;;;;;;;;5113251;28;20419;-79
2023/10/01 03:55:30;;;;;;;9.88;6.80;;;;;;;;;;5110802;28;20373;-79
2023/10/01 03:58:06;;;;;;;9.13;7.03;;;;;;;;;;5103318;28;20376;-79
2023/10/01 04:03:05;;;;;;;9.65;6.90;;;;;;;;;;5102977;28;20758;-79
2023/10/01 04:05:33;;;;;;;10.77;7.20;;;;;;;;;;5111812;28;20391;-79
2023/10/01 04:08:04;;;;;;;10.25;7.15;;;;;;;;;;5111488;28;20376;-79
2023/10/01 04:10:34;;;;;;;10.68;7.45;;;;;;;;;;5108163;28;20494;-79
2023/10/01 04:13:13;;;;;;;10.07;7.13;;;;;;;;;;5108728;28;20382;-79
2023/10/01 04:15:46;;;;;;;9.65;6.80;;;;;;;;;;5092139;28;20378;-79
2023/10/01 04:20:48;;;;;;;10.63;6.90;;;;;;;;;;5108307;28;20828;-79
2023/10/01 04:23:29;;;;;;;9.80;6.75;;;;;;;;;;5093883;28;20416;-79
2023/10/01 04:25:55;;;;;;;9.30;6.60;;;;;;;;;;5092054;28;20416;-79
2023/10/01 04:28:23;;;;;;;9.30;7.03;;;;;;;;;;5105677;28;20392;-79
2023/10/01 04:30:51;;;;;;;10.50;7.03;;;;;;;;;;5102737;28;20385;-78
2023/10/01 04:33:18;;;;;;;9.27;6.88;;;;;;;;;;5100464;28;20384;-79
2023/10/01 04:35:58;;;;;;;8.95;6.53;;;;;;;;;;5108248;28;20431;-79
2023/10/01 04:38:28;;;;;;;9.88;6.85;;;;;;;;;;5099835;28;21078;-81
2023/10/01 04:40:55;;;;;;;9.35;6.97;;;;;;;;;;5096613;28;20378;-80
2023/10/01 04:43:21;;;;;;;8.70;6.80;;;;;;;;;;5107582;28;20416;-80
2023/10/01 04:45:52;;;;;;;10.20;6.90;;;;;;;;;;5111889;28;20908;-80
2023/10/01 04:48:24;;;;;;;10.02;6.85;;;;;;;;;;5108283;28;20387;-80
2023/10/01 04:50:55;;;;;;;11.03;6.80;;;;;;;;;;5112495;28;20384;-80
2023/10/01 04:53:25;;;;;;;10.23;7.50;;;;;;;;;;5093830;28;20388;-80
2023/10/01 04:56:00;;;;;;;9.88;6.70;;;;;;;;;;5108915;28;20409;-80
2023/10/01 04:58:27;;;;;;;9.23;6.80;;;;;;;;;;5103640;28;20384;-80
2023/10/01 05:00:54;;;;;;;9.02;6.80;;;;;;;;;;5108675;28;20403;-80
2023/10/01 05:03:36;;;;;;;9.90;6.90;;;;;;;;;;5112002;28;20490;-80
2023/10/01 05:06:02;;;;;;;9.43;6.75;;;;;;;;;;5112642;28;20388;-80
2023/10/01 05:08:38;;;;;;;11.05;7.50;;;;;;;;;;5112562;28;20383;-80
2023/10/01 05:11:04;;;;;;;9.57;6.70;;;;;;;;;;5110255;28;20775;-80
2023/10/01 05:13:31;;;;;;;9.43;6.80;;;;;;;;;;5099918;28;20380;-80
2023/10/01 05:15:57;;;;;;;9.63;6.82;;;;;;;;;;5099066;28;20476;-80
2023/10/01 05:18:26;;;;;;;10.02;6.80;;;;;;;;;;5091711;28;20366;-80
2023/10/01 05:20:58;;;;;;;9.95;7.10;;;;;;;;;;5091601;28;20370;-80
2023/10/01 05:23:24;;;;;;;9.35;6.70;;;;;;;;;;5091380;28;20421;-80
2023/10/01 05:25:50;;;;;;;9.50;6.63;;;;;;;;;;5094387;28;20382;-80
2023/10/01 05:28:34;;;;;;;9.95;6.90;;;;;;;;;;5094978;28;20866;-80
2023/10/01 05:31:00;;;;;;;10.20;7.05;;;;;;;;;;5095750;28;20385;-80
2023/10/01 05:33:27;;;;;;;11.35;7.38;;;;;;;;;;5095027;28;20443;-81
2023/10/01 05:35:57;;;;;;;9.10;6.43;;;;;;;;;;5095802;28;20406;-80
2023/10/01 05:38:23;;;;;;;10.15;6.78;;;;;;;;;;5095339;28;20381;-80
2023/10/01 05:40:54;;;;;;;9.65;6.85;;;;;;;;;;5094967;28;20960;-80
2023/10/01 05:43:23;;;;;;;10.30;6.80;;;;;;;;;;5095124;28;20804;-80
2023/10/01 05:45:52;;;;;;;7.72;6.30;;;;;;;;;;5095063;28;20888;-80
2023/10/01 05:48:19;;;;;;;10.43;7.05;;;;;;;;;;5094873;28;20386;-80
2023/10/01 05:50:49;;;;;;;10.40;6.95;;;;;;;;;;5094768;28;20920;-80
2023/10/01 05:53:18;;;;;;;9.60;6.20;;;;;;;;;;5094695;28;20389;-80
2023/10/01 05:55:44;;;;;;;8.75;6.75;;;;;;;;;;5094917;28;20381;-80
2023/10/01 05:58:13;;;;;;;9.95;6.40;;;;;;;;;;5095371;28;20715;-80
2023/10/01 06:00:44;;;;;;;9.55;6.63;;;;;;;;;;5094846;28;20739;-80
2023/10/01 06:03:11;;;;;;;9.68;6.80;;;;;;;;;;5094722;28;20437;-80
2023/10/01 06:05:43;;;;;;;9.60;6.80;;;;;;;;;;5094618;28;20894;-80
2023/10/01 06:08:15;;;;;;;9.70;6.85;;;;;;;;;;5098084;28;20383;-81
2023/10/01 06:10:59;;;;;;;10.23;6.85;;;;;;;;;;5096718;28;20386;-80
2023/10/01 06:13:28;;;;;;;8.18;6.70;;;;;;;;;;5102128;28;20372;-80
2023/10/01 06:15:57;;;;;;;9.53;6.63;;;;;;;;;;5114990;28;20423;-80
2023/10/01 06:18:24;;;;;;;8.48;6.65;;;;;;;;;;5108776;28;20473;-80
2023/10/01 06:20:51;;;;;;;9.25;6.95;;;;;;;;;;5093988;28;20450;-80
2023/10/01 06:23:21;;;;;;;10.60;7.10;;;;;;;;;;5093936;28;20891;-80
2023/10/01 06:25:53;;;;;;;9.70;6.75;;;;;;;;;;5094754;28;20390;-80
2023/10/01 06:28:20;;;;;;;10.60;7.25;;;;;;;;;;5094413;28;20378;-80
2023/10/01 06:30:46;;;;;;;9.50;6.88;;;;;;;;;;5103950;28;20378;-80
2023/10/01 06:33:25;;;;;;;8.93;6.93;;;;;;;;;;5094564;28;20400;-80
2023/10/01 06:36:15;;;;;;;10.02;6.97;;;;;;;;;;5093726;28;20708;-80
2023/10/01 06:38:38;;;;;;;9.75;6.93;;;;;;;;;;5099405;28;20379;-80
2023/10/01 06:41:06;;;;;;;10.13;7.55;;;;;;;;;;5114095;28;20464;-80
2023/10/01 06:43:43;;;;;;;11.40;7.40;;;;;;;;;;5106029;28;20919;-80
2023/10/01 06:46:11;;;;;;;8.65;6.57;;;;;;;;;;5096062;28;20380;-80
2023/10/01 06:48:39;;;;;;;9.50;7.28;;;;;;;;;;5110657;28;20368;-80
2023/10/01 06:51:06;;;;;;;9.70;7.15;;;;;;;;;;5108623;28;20858;-80
2023/10/01 06:53:45;;;;;;;11.05;7.00;;;;;;;;;;5113030;28;20392;-81
2023/10/01 06:56:15;;;;;;;9.67;6.90;;;;;;;;;;5101168;28;20863;-80
2023/10/01 06:58:41;;;;;;;10.55;7.10;;;;;;;;;;5100087;28;20392;-80
2023/10/01 07:01:34;;;;;;;9.98;7.10;;;;;;;;;;5111171;28;20372;-80
2023/10/01 07:03:54;;;;;;;9.27;6.72;;;;;;;;;;5114005;28;21842;-81
2023/10/01 07:06:22;;;;;;;10.80;7.40;;;;;;;;;;5105220;28;20471;-80
2023/10/01 07:08:48;;;;;;;9.43;6.90;;;;;;;;;;5114234;28;20380;-80
2023/10/01 07:11:18;;;;;;;10.88;7.72;;;;;;;;;;5114286;28;20376;-80
2023/10/01 07:13:44;;;;;;;8.77;6.82;;;;;;;;;;5114843;28;20380;-80
2023/10/01 07:16:10;;;;;;;9.23;7.03;;;;;;;;;;5099798;28;20544;-81
2023/10/01 07:18:37;;;;;;;9.05;7.05;;;;;;;;;;5114533;28;20384;-81
2023/10/01 07:21:09;;;;;;;9.40;6.97;;;;;;;;;;5115000;28;20423;-80
2023/10/01 07:23:35;;;;;;;9.45;7.10;;;;;;;;;;5114490;28;20435;-80
2023/10/01 07:26:01;;;;;;;9.80;7.10;;;;;;;;;;5109697;28;20468;-80
2023/10/01 07:28:27;;;;;;;9.13;6.55;;;;;;;;;;5114269;28;20406;-80
2023/10/01 07:31:01;;;;;;;10.63;7.57;;;;;;;;;;5114219;28;20469;-81
2023/10/01 07:33:28;;;;;;;10.33;7.90;;;;;;;;;;5114463;28;20463;-81
2023/10/01 07:36:01;;;;;;;14.13;8.55;;;;;;;;;;5113723;28;20377;-80
2023/10/01 07:38:46;;;;;;;10.32;7.68;;;;;;;;;;5095408;28;20453;-80
2023/10/01 07:41:23;;;;;;;11.13;7.88;;;;;;;;;;5114043;28;20773;-81
2023/10/01 07:43:49;;;;;;;13.33;8.67;;;;;;;;;;5100738;28;20546;-81
2023/10/01 07:46:18;;;;;;;12.15;8.05;;;;;;;;;;5107143;28;20379;-80
2023/10/01 07:48:48;;;;;;;10.43;8.18;;;;;;;;;;5102404;28;20388;-80
2023/10/01 07:51:26;;;;;;;14.57;9.02;;;;;;;;;;5113946;28;20384;-82
2023/10/01 07:53:52;;;;;;;14.63;9.65;;;;;;;;;;5118343;28;20380;-82
2023/10/01 07:56:21;;;;;;;12.90;9.25;;;;;;;;;;5109465;28;20374;-83
2023/10/01 07:58:48;;;;;;;12.60;9.13;;;;;;;;;;5106590;28;20777;-83
2023/10/01 08:04:05;;;;;;;11.93;8.63;;;;;;;;;;5109194;28;20810;-82
2023/10/01 08:06:34;;;;;;;13.55;9.63;;;;;;;;;;5119910;28;20377;-83
2023/10/01 08:09:00;;;;;;;15.13;9.23;;;;;;;;;;5113763;28;20382;-83
2023/10/01 08:12:12;;;;;;;14.03;10.00;;;;;;;;;;5103094;28;20428;-83
2023/10/01 08:14:16;;;;;;;11.07;8.90;;;;;;;;;;5106501;28;20395;-83
2023/10/01 08:16:48;;;;;;;12.57;8.90;;;;;;;;;;5102929;28;20510;-83
2023/10/01 08:19:15;;;;;;;12.82;8.98;;;;;;;;;;5100095;28;20447;-83
2023/10/01 08:21:48;;;;;;;13.85;9.30;;;;;;;;;;5111098;28;20378;-83
2023/10/01 08:24:18;;;;;;;13.90;9.18;;;;;;;;;;5119811;28;20400;-83
2023/10/01 08:26:49;;;;;;;15.00;9.88;;;;;;;;;;5104047;28;20390;-83
2023/10/01 08:29:15;;;;;;;16.95;9.65;;;;;;;;;;5101387;28;20519;-83
2023/10/01 08:37:12;;;;;;;13.05;9.23;;;;;;;;;;5055967;28;20393;-83
2023/10/01 08:39:47;;;;;;;15.60;9.40;;;;;;;;;;5106894;28;20384;-82
2023/10/01 08:42:16;;;;;;;13.02;8.38;;;;;;;;;;5102773;28;20413;-83
2023/10/01 08:44:54;;;;;;;12.90;8.73;;;;;;;;;;5097930;28;20431;-83
2023/10/01 08:47:31;;;;;;;12.80;8.60;;;;;;;;;;5099848;28;20735;-83
2023/10/01 08:50:15;;;;;;;15.32;8.95;;;;;;;;;;5099163;28;20791;-82
2023/10/01 08:52:52;;;;;;;13.43;8.95;;;;;;;;;;5098315;28;20451;-83
2023/10/01 08:55:20;;;;;;;14.43;9.32;;;;;;;;;;5098044;28;20411;-83
2023/10/01 08:57:46;;;;;;;14.60;8.70;;;;;;;;;;5102727;28;20463;-83
2023/10/01 09:00:22;;;;;;;13.80;9.07;;;;;;;;;;5110556;28;20370;-83
2023/10/01 09:02:50;;;;;;;13.15;8.88;;;;;;;;;;5102769;28;20980;-83
2023/10/01 09:05:23;;;;;;;13.52;8.98;;;;;;;;;;5101059;28;20464;-83
2023/10/01 09:07:51;;;;;;;13.70;8.85;;;;;;;;;;5100837;28;20437;-83
2023/10/01 09:10:19;;;;;;;11.73;8.40;;;;;;;;;;5102486;28;20411;-83
2023/10/01 09:12:46;;;;;;;12.75;8.68;;;;;;;;;;5118761;28;20372;-83
2023/10/01 09:15:27;;;;;;;13.23;8.90;;;;;;;;;;5123953;28;20437;-83
2023/10/01 09:17:56;;;;;;;13.65;8.23;;;;;;;;;;5108978;28;20381;-83
2023/10/01 09:23:54;;;;;;;12.53;8.67;;;;;;;;;;5100159;28;20919;-83
2023/10/01 09:26:37;;;;;;;16.58;10.07;;;;;;;;;;5100327;28;20386;-83
2023/10/01 09:29:13;;;;;;;14.80;9.32;;;;;;;;;;5083362;28;20386;-83
2023/10/01 09:31:52;;;;;;;19.10;12.40;;;;;;;;;;5100609;28;22231;-82
2023/10/01 09:34:31;;;;;;;13.93;9.32;;;;;;;;;;5100656;28;20378;-83
2023/10/01 09:37:01;;;;;;;15.57;9.53;;;;;;;;;;5101295;28;20424;-82
2023/10/01 09:39:43;;;;;;;14.18;8.93;;;;;;;;;;5100885;28;20559;-83
2023/10/01 09:42:25;;;;;;;13.52;9.48;;;;;;;;;;5100764;28;20497;-83
2023/10/01 09:44:54;;;;;;;17.85;9.85;;;;;;;;;;5101376;28;20465;-83
2023/10/01 09:47:24;;;;;;;14.15;9.07;;;;;;;;;;5116253;28;20727;-83
2023/10/01 09:49:51;;;;;;;15.65;9.32;;;;;;;;;;5101492;28;20382;-82
2023/10/01 09:52:26;;;;;;;13.18;9.30;;;;;;;;;;5101711;28;20835;-83
2023/10/01 09:54:58;;;;;;;14.43;9.30;;;;;;;;;;5103901;28;20394;-83
2023/10/01 09:57:24;;;;;;;15.93;9.75;;;;;;;;;;5102828;28;20390;-83
2023/10/01 09:59:51;;;;;;;15.40;9.43;;;;;;;;;;5102316;28;20382;-82
2023/10/01 10:02:27;;;;;;;13.55;9.70;;;;;;;;;;5115283;28;20553;-83
2023/10/01 10:04:54;;;;;;;13.82;9.70;;;;;;;;;;5111515;28;20384;-83
2023/10/01 10:07:24;;;;;;;13.65;8.93;;;;;;;;;;5115163;28;20376;-83
2023/10/01 10:09:54;;;;;;;14.10;9.33;;;;;;;;;;5100766;28;20388;-83
2023/10/01 10:12:33;;;;;;;14.03;9.47;;;;;;;;;;5114574;28;20787;-83
2023/10/01 10:15:00;;;;;;;13.23;9.18;;;;;;;;;;5121657;28;20780;-83
2023/10/01 10:17:27;;;;;;;14.88;9.10;;;;;;;;;;5111163;28;20728;-81
2023/10/01 10:23:13;;;;;;;14.50;9.20;;;;;;;;;;5093130;28;20418;-83
2023/10/01 10:25:40;;;;;;;13.93;9.18;;;;;;;;;;5102948;28;20665;-80
2023/10/01 10:28:06;;;;;;;15.13;9.18;;;;;;;;;;5102642;28;20432;-83
2023/10/01 10:30:32;;;;;;;13.63;8.77;;;;;;;;;;5100906;28;20469;-83
2023/10/01 10:33:17;;;;;;;15.20;9.20;;;;;;;;;;5114096;28;20406;-81
2023/10/01 10:35:49;;;;;;;13.00;9.07;;;;;;;;;;5103686;28;20378;-83
2023/10/01 10:38:48;;;;;;;10.90;8.32;;;;;;;;;;5101084;28;20378;-83
2023/10/01 10:41:14;;;;;;;14.00;9.20;;;;;;;;;;5101553;28;20787;-81
2023/10/01 10:43:42;;;;;;;15.33;9.13;;;;;;;;;;5102670;28;20441;-81
2023/10/01 10:46:09;;;;;;;17.27;9.30;;;;;;;;;;5102894;28;20495;-81
2023/10/01 10:48:59;;;;;;;13.43;9.10;;;;;;;;;;5102010;28;20735;-81
2023/10/01 10:51:45;;;;;;;13.98;8.73;;;;;;;;;;5104601;28;20712;-81
2023/10/01 10:54:16;;;;;;;12.93;8.48;;;;;;;;;;5101962;28;20445;-83
2023/10/01 10:56:44;;;;;;;13.63;8.95;;;;;;;;;;5101252;28;20385;-83
2023/10/01 10:59:13;;;;;;;13.48;8.85;;;;;;;;;;5101058;28;20492;-83
2023/10/01 11:01:44;;;;;;;12.63;8.70;;;;;;;;;;5102979;28;20392;-81
2023/10/01 11:04:11;;;;;;;13.55;9.18;;;;;;;;;;5102799;28;20412;-81
2023/10/01 11:07:01;;;;;;;12.15;8.15;;;;;;;;;;5103768;28;20390;-81
2023/10/01 11:09:30;;;;;;;11.68;8.25;;;;;;;;;;5104327;28;20382;-81
2023/10/01 11:12:05;;;;;;;12.50;8.23;;;;;;;;;;5112754;28;20898;-81
2023/10/01 11:14:33;;;;;;;12.23;8.53;;;;;;;;;;5106709;28;20386;-81
2023/10/01 11:16:59;;;;;;;13.85;8.20;;;;;;;;;;5102715;28;20384;-83
2023/10/01 11:19:25;;;;;;;12.15;8.05;;;;;;;;;;5102485;28;20410;-81
2023/10/01 11:21:59;;;;;;;11.70;7.63;;;;;;;;;;5116071;28;20397;-81
2023/10/01 11:24:31;;;;;;;11.48;7.95;;;;;;;;;;5103627;28;20381;-81
2023/10/01 11:27:11;;;;;;;11.20;8.07;;;;;;;;;;5104219;28;20834;-81
2023/10/01 11:29:39;;;;;;;11.65;7.63;;;;;;;;;;5106314;28;20397;-82
2023/10/01 11:32:05;;;;;;;11.52;7.60;;;;;;;;;;5114400;28;20385;-82
2023/10/01 11:34:55;;;;;;;12.27;7.88;;;;;;;;;;5119926;28;20419;-82
2023/10/01 11:37:27;;;;;;;9.82;7.53;;;;;;;;;;5125594;28;20418;-82
2023/10/01 11:39:54;;;;;;;10.40;7.18;;;;;;;;;;5123201;28;20388;-84
2023/10/01 11:42:35;;;;;;;10.23;7.18;;;;;;;;;;5123941;28;20412;-84
2023/10/01 11:45:12;;;;;;;9.32;6.75;;;;;;;;;;5121615;28;20381;-83
2023/10/01 11:48:04;;;;;;;10.43;7.20;;;;;;;;;;5102766;28;20427;-82
2023/10/01 11:50:30;;;;;;;10.30;7.32;;;;;;;;;;5104870;28;20435;-83
2023/10/01 11:53:05;;;;;;;10.30;7.07;;;;;;;;;;5104399;28;20473;-84
2023/10/01 11:55:33;;;;;;;11.25;7.72;;;;;;;;;;5089630;28;20395;-83
2023/10/01 11:58:00;;;;;;;11.48;7.15;;;;;;;;;;5111087;28;20433;-84
2023/10/01 12:03:11;;;;;;;9.65;7.30;;;;;;;;;;5112824;28;20412;-83
2023/10/01 12:05:42;;;;;;;9.30;7.30;;;;;;;;;;5112229;28;20433;-83
2023/10/01 12:08:14;;;;;;;10.68;7.40;;;;;;;;;;5093449;28;20390;-83
2023/10/01 12:10:41;;;;;;;9.95;7.15;;;;;;;;;;5102097;28;20846;-83
2023/10/01 12:13:07;;;;;;;9.73;7.70;;;;;;;;;;5117250;28;20402;-83
2023/10/01 12:15:51;;;;;;;11.75;7.78;;;;;;;;;;5112200;28;20388;-83
2023/10/01 12:18:18;;;;;;;11.50;7.63;;;;;;;;;;5102830;28;20864;-83
2023/10/01 12:20:47;;;;;;;10.77;7.47;;;;;;;;;;5103649;28;20446;-84
2023/10/01 12:23:19;;;;;;;10.30;7.18;;;;;;;;;;5101493;28;20409;-83
2023/10/01 12:28:17;;;;;;;10.68;7.22;;;;;;;;;;5110854;28;20961;-84
2023/10/01 12:30:44;;;;;;;10.50;7.30;;;;;;;;;;5117734;28;20373;-83
2023/10/01 12:33:10;;;;;;;9.98;6.82;;;;;;;;;;5120470;28;20372;-83
2023/10/01 12:35:36;;;;;;;10.50;7.23;;;;;;;;;;5124345;28;20379;-83
2023/10/01 12:40:49;;;;;;;9.88;7.28;;;;;;;;;;5120079;28;20776;-81
2023/10/01 12:46:03;;;;;;;9.57;7.35;;;;;;;;;;5096279;28;20398;-84
2023/10/01 12:48:30;;;;;;;9.50;7.15;;;;;;;;;;5434339;22;20376;-83
2023/10/01 12:51:09;;;;;;;10.60;7.85;;;;;;;;;;5033862;28;20401;-82
2023/10/01 12:53:34;;;;;;;10.93;7.68;;;;;;;;;;5051948;28;20395;-82
2023/10/01 12:56:04;;;;;;;9.48;7.93;;;;;;;;;;5034626;28;20469;-82
2023/10/01 12:58:36;;;;;;;10.00;7.50;;;;;;;;;;5052207;28;20397;-82
2023/10/01 13:01:23;;;;;;;10.13;7.10;;;;;;;;;;5050959;28;20427;-82
2023/10/01 13:03:50;;;;;;;10.13;7.30;;;;;;;;;;5038747;28;20413;-82
2023/10/01 13:06:16;;;;;;;9.98;7.47;;;;;;;;;;5052399;28;20555;-82
2023/10/01 13:08:42;;;;;;;11.80;7.78;;;;;;;;;;5053024;28;20394;-82
2023/10/01 13:11:43;;;;;;;9.25;7.10;;;;;;;;;;5052821;28;20465;-82
2023/10/01 13:13:55;;;;;;;11.45;7.63;;;;;;;;;;5051833;28;20519;-82
2023/10/01 13:16:20;;;;;;;11.02;7.47;;;;;;;;;;5052255;28;20454;-82
2023/10/01 13:18:46;;;;;;;11.63;7.93;;;;;;;;;;5052624;28;20870;-82
2023/10/01 13:21:12;;;;;;;10.40;7.95;;;;;;;;;;5052661;28;20381;-82
2023/10/01 13:23:42;;;;;;;10.48;7.47;;;;;;;;;;5051811;28;20767;-82
2023/10/01 13:26:15;;;;;;;10.55;7.93;;;;;;;;;;5052356;28;20394;-82
2023/10/01 13:28:50;;;;;;;10.03;7.80;;;;;;;;;;5052080;28;20461;-82
2023/10/01 13:34:09;;;;;;;10.35;7.63;;;;;;;;;;5052016;28;20398;-82
2023/10/01 14:09:54;;;;;;;10.48;8.07;;;;;;;;;;5043936;28;20872;-83
2023/10/01 14:12:42;;;;;;;11.80;8.32;;;;;;;;;;5055044;28;20476;-82
2023/10/01 14:15:25;;;;;;;12.32;8.48;;;;;;;;;;5054793;28;20386;-82
2023/10/01 14:17:53;;;;;;;10.95;8.00;;;;;;;;;;5054511;28;20484;-81
2023/10/01 14:20:37;;;;;;;10.13;7.68;;;;;;;;;;5051733;28;20391;-82
2023/10/01 14:23:10;;;;;;;11.27;8.05;;;;;;;;;;5051466;28;20405;-83
2023/10/01 14:28:51;;;;;;;10.32;7.68;;;;;;;;;;4992947;28;20949;-82
2023/10/01 14:31:41;;;;;;;10.35;7.75;;;;;;;;;;4993094;28;20442;-82
2023/10/01 14:34:08;;;;;;;10.68;7.97;;;;;;;;;;4991899;28;20391;-83
2023/10/01 14:36:39;;;;;;;11.73;8.25;;;;;;;;;;4993262;28;20920;-82
2023/10/01 14:39:05;;;;;;;11.02;7.70;;;;;;;;;;4991861;28;20437;-82
2023/10/01 14:41:37;;;;;;;11.35;8.10;;;;;;;;;;4992602;28;20741;-81
2023/10/01 14:44:04;;;;;;;10.02;7.68;;;;;;;;;;4992048;28;20838;-81
2023/10/01 14:46:32;;;;;;;11.37;8.30;;;;;;;;;;4990971;28;20458;-81
2023/10/01 14:49:07;;;;;;;9.20;7.28;;;;;;;;;;4992384;28;20942;-81
2023/10/01 14:51:34;;;;;;;9.60;7.63;;;;;;;;;;4991836;28;20883;-81
2023/10/01 14:54:01;;;;;;;10.10;7.40;;;;;;;;;;4991222;28;20400;-81
2023/10/01 14:56:31;;;;;;;9.80;7.53;;;;;;;;;;4991802;28;20402;-81
2023/10/01 14:59:00;;;;;;;8.55;7.10;;;;;;;;;;5010451;28;20398;-81
2023/10/01 15:01:36;;;;;;;10.88;7.85;;;;;;;;;;5053935;28;20382;-81
2023/10/01 15:04:15;;;;;;;9.02;7.05;;;;;;;;;;5052975;28;20503;-82
2023/10/01 15:06:41;;;;;;;10.88;7.63;;;;;;;;;;5053750;28;20452;-82
2023/10/01 15:09:07;;;;;;;8.90;7.28;;;;;;;;;;5053210;28;20464;-82
2023/10/01 15:11:33;;;;;;;11.48;7.60;;;;;;;;;;5053335;28;20385;-82
2023/10/01 15:14:11;;;;;;;10.70;7.40;;;;;;;;;;5053339;28;20519;-82
2023/10/01 15:16:38;;;;;;;8.38;7.15;;;;;;;;;;5053748;28;20400;-81
2023/10/01 15:19:04;;;;;;;11.23;7.10;;;;;;;;;;5053768;28;20853;-81
2023/10/01 15:21:31;;;;;;;9.47;7.27;;;;;;;;;;5053353;28;20551;-81
2023/10/01 15:24:00;;;;;;;11.30;7.05;;;;;;;;;;5053470;28;20445;-82
2023/10/01 15:26:30;;;;;;;10.48;7.60;;;;;;;;;;5052525;28;20534;-82
2023/10/01 15:28:56;;;;;;;11.90;7.63;;;;;;;;;;5046807;28;20378;-81
2023/10/01 15:31:33;;;;;;;8.95;7.53;;;;;;;;;;5044125;28;20899;-82
2023/10/01 15:34:02;;;;;;;10.68;8.00;;;;;;;;;;5042448;28;20394;-82
2023/10/01 15:36:40;;;;;;;12.33;8.57;;;;;;;;;;5033167;28;20387;-82
2023/10/01 15:39:14;;;;;;;10.63;7.82;;;;;;;;;;5049823;28;20461;-82
2023/10/01 15:41:41;;;;;;;11.07;7.60;;;;;;;;;;5053081;28;20490;-82
2023/10/01 15:44:08;;;;;;;10.02;7.55;;;;;;;;;;5040618;28;20428;-82
2023/10/01 15:46:40;;;;;;;9.25;7.55;;;;;;;;;;5053372;28;20393;-82
2023/10/01 15:49:18;;;;;;;12.60;8.15;;;;;;;;;;5052414;28;20471;-81
2023/10/01 15:51:45;;;;;;;10.75;7.85;;;;;;;;;;5052824;28;20843;-81
2023/10/01 15:54:22;;;;;;;10.57;7.70;;;;;;;;;;5052652;28;20396;-82
2023/10/01 15:56:48;;;;;;;11.85;8.30;;;;;;;;;;5052824;28;20909;-82
2023/10/01 15:59:19;;;;;;;10.68;7.80;;;;;;;;;;5052142;28;20985;-81
2023/10/01 16:01:50;;;;;;;10.63;8.17;;;;;;;;;;5051936;28;20424;-81
2023/10/01 16:04:21;;;;;;;11.15;8.18;;;;;;;;;;5052917;28;20779;-81
2023/10/01 16:06:48;;;;;;;10.90;7.75;;;;;;;;;;5053284;28;20387;-81
2023/10/01 16:09:14;;;;;;;10.68;7.97;;;;;;;;;;5052129;28;20382;-81
2023/10/01 16:11:40;;;;;;;11.40;7.97;;;;;;;;;;5049328;28;20385;-81
2023/10/01 16:14:09;;;;;;;9.80;7.80;;;;;;;;;;5051321;28;20406;-81